createdAt,value
2018-12-14T00:01:19.658Z,18.25
2018-12-14T00:03:49.286Z,18.37
2018-12-14T00:06:18.809Z,18.85
2018-12-14T00:08:48.376Z,17.90
2018-12-14T00:11:15.909Z,19.70
2018-12-14T00:13:43.437Z,16.00
2018-12-14T00:16:11.006Z,16.20
2018-12-14T00:18:38.533Z,18.32
2018-12-14T00:21:06.034Z,17.65
2018-12-14T00:23:33.628Z,17.48
2018-12-14T00:26:01.058Z,16.60
2018-12-14T00:28:28.554Z,18.23
2018-12-14T00:30:56.075Z,18.30
2018-12-14T00:33:23.568Z,17.77
2018-12-14T00:35:51.042Z,18.85
2018-12-14T00:38:18.544Z,20.12
2018-12-14T00:40:46.027Z,15.93
2018-12-14T00:43:13.597Z,17.75
2018-12-14T00:45:41.160Z,18.37
2018-12-14T00:48:08.532Z,17.20
2018-12-14T00:50:35.983Z,18.40
2018-12-14T00:53:03.400Z,18.92
2018-12-14T00:55:30.850Z,18.77
2018-12-14T00:57:58.359Z,16.75
2018-12-14T01:00:25.985Z,18.52
2018-12-14T01:02:53.421Z,18.05
2018-12-14T01:05:21.017Z,18.80
2018-12-14T01:07:48.542Z,19.45
2018-12-14T01:10:16.172Z,18.60
2018-12-14T01:12:45.423Z,17.80
2018-12-14T01:15:13.166Z,17.20
2018-12-14T01:17:40.776Z,16.02
2018-12-14T01:20:08.964Z,17.60
2018-12-14T01:22:36.598Z,18.50
2018-12-14T01:25:04.203Z,18.40
2018-12-14T01:27:31.778Z,18.32
2018-12-14T01:29:59.189Z,17.73
2018-12-14T01:32:26.703Z,18.25
2018-12-14T01:34:54.252Z,16.37
2018-12-14T01:37:21.759Z,17.60
2018-12-14T01:39:49.178Z,19.27
2018-12-14T01:42:16.747Z,16.77
2018-12-14T01:44:44.282Z,17.82
2018-12-14T01:47:11.891Z,17.82
2018-12-14T01:49:39.439Z,17.12
2018-12-14T01:52:07.010Z,16.30
2018-12-14T01:54:34.469Z,17.65
2018-12-14T01:57:02.145Z,17.65
2018-12-14T01:59:29.650Z,16.15
2018-12-14T02:01:57.244Z,17.42
2018-12-14T02:04:24.754Z,16.15
2018-12-14T02:06:52.173Z,16.30
2018-12-14T02:09:19.773Z,19.32
2018-12-14T02:11:47.261Z,15.05
2018-12-14T02:14:14.863Z,17.75
2018-12-14T02:16:42.325Z,17.52
2018-12-14T02:19:09.890Z,15.98
2018-12-14T02:21:37.403Z,16.85
2018-12-14T02:24:04.899Z,16.55
2018-12-14T02:26:32.370Z,16.85
2018-12-14T02:29:00.040Z,15.93
2018-12-14T02:31:27.528Z,16.00
2018-12-14T02:33:54.967Z,16.35
2018-12-14T02:36:22.671Z,14.03
2018-12-14T02:38:50.174Z,15.90
2018-12-14T02:41:17.642Z,14.83
2018-12-14T02:43:45.418Z,14.58
2018-12-14T02:46:12.815Z,15.75
2018-12-14T02:48:40.250Z,15.63
2018-12-14T02:51:07.738Z,16.32
2018-12-14T02:53:35.267Z,15.38
2018-12-14T02:56:02.785Z,16.67
2018-12-14T02:58:30.275Z,15.65
2018-12-14T03:00:58.130Z,17.45
2018-12-14T03:03:25.539Z,15.80
2018-12-14T03:05:53.046Z,15.53
2018-12-14T03:08:20.628Z,15.60
2018-12-14T03:10:49.229Z,14.85
2018-12-14T03:13:16.797Z,16.00
2018-12-14T03:15:44.376Z,16.57
2018-12-14T03:18:11.915Z,14.53
2018-12-14T03:20:39.490Z,16.40
2018-12-14T03:23:06.967Z,13.88
2018-12-14T03:25:34.377Z,15.45
2018-12-14T03:28:01.894Z,15.03
2018-12-14T03:30:29.478Z,13.65
2018-12-14T03:32:56.885Z,15.25
2018-12-14T03:35:24.472Z,14.38
2018-12-14T03:37:51.897Z,15.43
2018-12-14T03:40:19.428Z,16.12
2018-12-14T03:42:46.961Z,15.70
2018-12-14T03:45:14.403Z,15.00
2018-12-14T03:47:41.892Z,15.75
2018-12-14T03:50:10.627Z,15.72
2018-12-14T03:52:38.117Z,16.07
2018-12-14T03:55:05.602Z,14.87
2018-12-14T03:57:33.080Z,15.32
2018-12-14T04:00:00.605Z,14.65
2018-12-14T04:02:28.197Z,14.85
2018-12-14T04:04:55.667Z,16.05
2018-12-14T04:07:23.153Z,14.78
2018-12-14T04:09:50.740Z,16.42
2018-12-14T04:12:18.187Z,15.00
2018-12-14T04:14:45.685Z,15.38
2018-12-14T04:17:13.045Z,13.25
2018-12-14T04:19:40.494Z,15.98
2018-12-14T04:22:08.008Z,14.45
2018-12-14T04:24:35.506Z,16.50
2018-12-14T04:27:03.059Z,15.38
2018-12-14T04:29:30.521Z,15.48
2018-12-14T04:31:58.033Z,15.93
2018-12-14T04:34:25.445Z,15.38
2018-12-14T04:36:52.992Z,16.02
2018-12-14T04:39:22.471Z,15.55
2018-12-14T04:41:49.940Z,14.90
2018-12-14T04:44:17.504Z,16.90
2018-12-14T04:46:44.966Z,15.78
2018-12-14T04:49:12.524Z,17.45
2018-12-14T04:51:40.081Z,18.57
2018-12-14T04:54:07.607Z,18.80
2018-12-14T04:56:35.143Z,18.07
2018-12-14T04:59:02.625Z,16.87
2018-12-14T05:01:30.149Z,16.32
2018-12-14T05:03:57.816Z,14.93
2018-12-14T05:06:25.327Z,16.35
2018-12-14T05:08:52.886Z,16.25
2018-12-14T05:11:20.431Z,15.83
2018-12-14T05:13:47.953Z,14.75
2018-12-14T05:16:15.452Z,14.95
2018-12-14T05:18:43.059Z,16.60
2018-12-14T05:21:10.648Z,15.88
2018-12-14T05:23:38.159Z,15.75
2018-12-14T05:26:05.635Z,16.20
2018-12-14T05:28:33.079Z,14.50
2018-12-14T05:31:00.564Z,15.78
2018-12-14T05:33:28.183Z,16.02
2018-12-14T05:35:55.646Z,15.40
2018-12-14T05:38:23.096Z,17.07
2018-12-14T05:40:50.582Z,15.68
2018-12-14T05:43:18.067Z,14.35
2018-12-14T05:45:45.650Z,15.80
2018-12-14T05:48:13.122Z,13.80
2018-12-14T05:53:14.988Z,21.85
2018-12-14T05:55:42.512Z,20.37
2018-12-14T05:58:09.934Z,22.77
2018-12-14T06:00:37.494Z,18.23
2018-12-14T06:03:05.074Z,16.90
2018-12-14T06:05:32.558Z,16.73
2018-12-14T06:08:00.038Z,16.40
2018-12-14T06:10:27.511Z,17.55
2018-12-14T06:12:55.040Z,17.32
2018-12-14T06:17:56.944Z,17.50
2018-12-14T06:20:24.456Z,16.95
2018-12-14T06:22:51.906Z,15.03
2018-12-14T06:25:19.392Z,17.40
2018-12-14T06:27:46.922Z,18.25
2018-12-14T06:30:14.475Z,17.02
2018-12-14T06:32:41.980Z,16.50
2018-12-14T06:35:09.509Z,16.55
2018-12-14T06:37:37.091Z,18.05
2018-12-14T06:40:05.028Z,16.87
2018-12-14T06:42:32.608Z,16.45
2018-12-14T06:45:00.113Z,16.62
2018-12-14T06:47:29.296Z,17.70
2018-12-14T06:49:56.737Z,18.60
2018-12-14T06:52:24.206Z,20.52
2018-12-14T06:54:51.740Z,26.00
2018-12-14T06:57:19.174Z,32.05
2018-12-14T06:59:46.712Z,37.17
2018-12-14T07:02:14.180Z,34.92
2018-12-14T07:04:41.639Z,31.70
2018-12-14T07:07:09.130Z,30.75
2018-12-14T07:09:36.648Z,34.35
2018-12-14T07:12:04.121Z,51.50
2018-12-14T07:14:31.691Z,55.58
2018-12-14T07:17:00.056Z,62.05
2018-12-14T07:19:28.648Z,51.90
2018-12-14T07:21:57.399Z,47.60
2018-12-14T07:24:24.903Z,53.95
2018-12-14T07:26:52.760Z,64.65
2018-12-14T07:29:20.232Z,53.80
2018-12-14T07:31:47.727Z,50.15
2018-12-14T07:34:15.879Z,52.70
2018-12-14T07:36:44.191Z,46.53
2018-12-14T07:39:11.780Z,31.97
2018-12-14T07:41:39.401Z,28.12
2018-12-14T07:44:08.769Z,24.27
2018-12-14T07:46:36.546Z,24.30
2018-12-14T07:49:04.478Z,22.10
2018-12-14T07:51:31.918Z,21.97
2018-12-14T07:53:59.762Z,23.00
2018-12-14T07:56:27.243Z,24.43
2018-12-14T07:58:55.247Z,28.73
2018-12-14T08:01:22.876Z,30.82
2018-12-14T08:03:50.395Z,31.60
2018-12-14T08:06:17.893Z,27.30
2018-12-14T08:08:45.473Z,28.52
2018-12-14T08:11:13.140Z,28.57
2018-12-14T08:13:40.755Z,27.77
2018-12-14T08:16:08.270Z,24.65
2018-12-14T08:18:35.984Z,25.85
2018-12-14T08:21:03.545Z,23.87
2018-12-14T08:23:31.934Z,23.85
2018-12-14T08:25:59.444Z,25.80
2018-12-14T08:28:26.951Z,26.37
2018-12-14T08:30:54.507Z,21.27
2018-12-14T08:33:22.004Z,21.02
2018-12-14T08:35:49.521Z,20.65
2018-12-14T08:38:17.028Z,20.48
2018-12-14T08:40:44.610Z,18.92
2018-12-14T08:43:13.289Z,21.50
2018-12-14T08:45:40.756Z,22.13
2018-12-14T08:48:09.515Z,20.60
2018-12-14T08:50:37.125Z,24.63
2018-12-14T08:53:04.652Z,24.63
2018-12-14T08:55:32.093Z,20.75
2018-12-14T08:57:59.638Z,21.27
2018-12-14T09:00:27.083Z,22.35
2018-12-14T09:02:54.621Z,21.12
2018-12-14T09:05:22.190Z,29.15
2018-12-14T09:07:49.695Z,26.30
2018-12-14T09:10:17.329Z,26.80
2018-12-14T09:12:44.996Z,29.82
2018-12-14T09:15:12.457Z,27.20
2018-12-14T09:17:40.100Z,27.67
2018-12-14T09:20:07.668Z,24.15
2018-12-14T09:22:35.384Z,24.00
2018-12-14T09:25:03.156Z,22.27
2018-12-14T09:27:30.682Z,21.62
2018-12-14T09:29:58.164Z,21.65
2018-12-14T09:32:25.700Z,22.85
2018-12-14T09:34:53.183Z,22.87
2018-12-14T09:37:20.620Z,24.10
2018-12-14T09:39:48.122Z,22.93
2018-12-14T09:42:15.672Z,23.75
2018-12-14T09:44:43.222Z,21.97
2018-12-14T09:47:11.208Z,23.65
2018-12-14T09:49:38.955Z,23.45
2018-12-14T09:52:06.595Z,24.20
2018-12-14T09:54:34.105Z,26.77
2018-12-14T09:57:01.585Z,25.75
2018-12-14T09:59:29.076Z,23.40
2018-12-14T10:01:56.505Z,25.75
2018-12-14T10:04:23.901Z,26.87
2018-12-14T10:06:51.335Z,29.45
2018-12-14T10:09:18.814Z,27.30
2018-12-14T10:11:46.323Z,28.23
2018-12-14T10:14:13.752Z,27.95
2018-12-14T10:16:41.137Z,28.10
2018-12-14T10:19:08.870Z,30.55
2018-12-14T10:21:36.618Z,31.80
2018-12-14T10:24:04.263Z,32.88
2018-12-14T10:26:31.751Z,30.10
2018-12-14T10:28:59.287Z,31.37
2018-12-14T10:31:27.770Z,31.25
2018-12-14T10:33:55.256Z,29.23
2018-12-14T10:36:22.827Z,30.90
2018-12-14T10:38:50.475Z,30.80
2018-12-14T10:41:17.964Z,28.65
2018-12-14T10:43:45.570Z,28.83
2018-12-14T10:46:13.019Z,27.90
2018-12-14T10:48:40.514Z,27.13
2018-12-14T10:51:08.103Z,27.35
2018-12-14T10:53:35.741Z,28.98
2018-12-14T10:56:03.433Z,28.07
2018-12-14T10:58:30.978Z,25.70
2018-12-14T11:01:04.331Z,26.80
2018-12-14T11:03:31.864Z,27.27
2018-12-14T11:05:59.478Z,26.20
2018-12-14T11:08:28.156Z,23.77
2018-12-14T11:10:55.603Z,23.42
2018-12-14T11:13:23.055Z,24.00
2018-12-14T11:15:50.580Z,24.10
2018-12-14T11:18:19.130Z,24.20
2018-12-14T11:20:46.578Z,24.30
2018-12-14T11:23:14.069Z,23.45
2018-12-14T11:25:41.545Z,24.30
2018-12-14T11:28:09.028Z,23.83
2018-12-14T11:30:36.638Z,22.27
2018-12-14T11:33:04.232Z,21.45
2018-12-14T11:35:31.811Z,18.23
2018-12-14T11:37:59.507Z,21.10
2018-12-14T11:40:26.934Z,19.23
2018-12-14T11:42:54.445Z,19.02
2018-12-14T11:45:21.975Z,19.80
2018-12-14T11:47:49.456Z,18.10
2018-12-14T11:50:17.056Z,19.10
2018-12-14T11:52:44.575Z,19.35
2018-12-14T11:55:12.144Z,20.15
2018-12-14T11:57:40.041Z,18.05
2018-12-14T12:00:12.501Z,19.85
2018-12-14T12:02:43.052Z,18.60
2018-12-14T12:05:09.489Z,19.62
2018-12-14T12:07:37.866Z,19.95
2018-12-14T12:10:07.768Z,19.77
2018-12-14T12:12:35.562Z,20.77
2018-12-14T12:15:03.254Z,18.15
2018-12-14T12:17:31.235Z,21.40
2018-12-14T12:19:58.759Z,18.77
2018-12-14T12:22:26.256Z,20.02
2018-12-14T12:24:53.702Z,19.10
2018-12-14T12:27:21.307Z,18.62
2018-12-14T12:29:48.781Z,20.20
2018-12-14T12:32:16.408Z,19.35
2018-12-14T12:34:43.958Z,20.92
2018-12-14T12:37:11.481Z,20.85
2018-12-14T12:39:38.955Z,22.17
2018-12-14T12:42:06.542Z,19.27
2018-12-14T12:44:33.935Z,19.95
2018-12-14T12:47:01.507Z,20.70
2018-12-14T12:49:29.061Z,19.77
2018-12-14T12:51:56.666Z,21.00
2018-12-14T12:54:24.352Z,20.80
2018-12-14T12:56:51.823Z,19.65
2018-12-14T12:59:19.638Z,19.95
2018-12-14T13:01:47.094Z,19.70
2018-12-14T13:04:14.521Z,19.48
2018-12-14T13:06:42.180Z,19.35
2018-12-14T13:09:09.694Z,20.25
2018-12-14T13:11:39.038Z,18.95
2018-12-14T13:14:06.538Z,20.10
2018-12-14T13:16:33.957Z,17.75
2018-12-14T13:19:01.459Z,17.37
2018-12-14T13:21:28.895Z,17.25
2018-12-14T13:23:56.371Z,18.90
2018-12-14T13:26:23.990Z,20.20
2018-12-14T13:28:51.871Z,17.60
2018-12-14T13:31:19.547Z,18.12
2018-12-14T13:33:47.081Z,19.50
2018-12-14T13:36:14.506Z,19.50
2018-12-14T13:38:42.473Z,18.80
2018-12-14T13:41:13.140Z,20.17
2018-12-14T13:43:41.598Z,18.48
2018-12-14T13:46:09.322Z,18.65
2018-12-14T13:48:36.993Z,19.35
2018-12-14T13:51:04.905Z,18.48
2018-12-14T13:53:32.449Z,16.10
2018-12-14T13:55:59.944Z,19.52
2018-12-14T13:58:27.414Z,20.17
2018-12-14T14:00:54.857Z,16.60
2018-12-14T14:03:22.489Z,16.77
2018-12-14T14:05:49.981Z,17.32
2018-12-14T14:08:17.416Z,19.73
2018-12-14T14:10:44.951Z,17.98
2018-12-14T14:13:12.498Z,18.75
2018-12-14T14:15:40.015Z,17.98
2018-12-14T14:18:07.531Z,18.75
2018-12-14T14:20:35.050Z,18.67
2018-12-14T14:23:02.551Z,16.45
2018-12-14T14:25:30.228Z,18.40
2018-12-14T14:27:57.739Z,20.30
2018-12-14T14:30:25.255Z,18.85
2018-12-14T14:32:52.874Z,17.85
2018-12-14T14:35:20.454Z,17.27
2018-12-14T14:37:48.149Z,19.80
2018-12-14T14:40:15.714Z,16.07
2018-12-14T14:42:43.240Z,18.98
2018-12-14T14:45:10.756Z,17.15
2018-12-14T14:47:38.291Z,17.82
2018-12-14T14:50:07.784Z,18.87
2018-12-14T14:52:35.320Z,18.25
2018-12-14T14:55:03.154Z,17.50
2018-12-14T14:57:31.223Z,17.85
2018-12-14T14:59:58.794Z,18.50
2018-12-14T15:02:26.426Z,19.15
2018-12-14T15:04:53.927Z,20.82
2018-12-14T15:07:22.540Z,18.07
2018-12-14T15:09:50.078Z,18.77
2018-12-14T15:12:17.533Z,20.88
2018-12-14T15:14:45.055Z,19.42
2018-12-14T15:17:12.510Z,18.95
2018-12-14T15:19:40.080Z,18.77
2018-12-14T15:22:07.703Z,20.90
2018-12-14T15:24:35.190Z,20.25
2018-12-14T15:27:02.732Z,19.42
2018-12-14T15:29:30.205Z,18.85
2018-12-14T15:31:57.953Z,18.70
2018-12-14T15:34:25.385Z,20.57
2018-12-14T15:36:52.960Z,20.10
2018-12-14T15:39:20.438Z,20.20
2018-12-14T15:41:48.116Z,17.55
2018-12-14T15:44:15.536Z,21.15
2018-12-14T15:46:43.109Z,19.77
2018-12-14T15:49:10.708Z,20.80
2018-12-14T15:51:38.235Z,19.55
2018-12-14T15:54:05.961Z,20.02
2018-12-14T15:56:33.559Z,20.92
2018-12-14T15:59:01.197Z,21.48
2018-12-14T16:01:28.643Z,20.65
2018-12-14T16:03:56.136Z,19.23
2018-12-14T16:06:23.622Z,18.23
2018-12-14T16:08:51.082Z,17.27
2018-12-14T16:11:18.617Z,18.57
2018-12-14T16:13:46.051Z,19.55
2018-12-14T16:16:13.551Z,18.07
2018-12-14T16:18:41.147Z,17.02
2018-12-14T16:21:08.681Z,19.10
2018-12-14T16:23:36.559Z,20.77
2018-12-14T16:26:04.286Z,19.40
2018-12-14T16:28:32.051Z,20.02
2018-12-14T16:30:59.704Z,20.02
2018-12-14T16:33:27.211Z,18.70
2018-12-14T16:35:54.699Z,17.65
2018-12-14T16:38:22.137Z,17.75
2018-12-14T16:40:49.698Z,16.90
2018-12-14T16:43:17.184Z,20.27
2018-12-14T16:45:44.688Z,21.23
2018-12-14T16:48:12.157Z,22.37
2018-12-14T16:50:39.782Z,22.52
2018-12-14T16:53:07.432Z,20.88
2018-12-14T16:55:34.890Z,22.67
2018-12-14T16:58:02.610Z,23.73
2018-12-14T17:00:30.230Z,23.07
2018-12-14T17:02:57.951Z,21.40
2018-12-14T17:05:26.089Z,19.17
2018-12-14T17:07:53.675Z,19.90
2018-12-14T17:10:21.206Z,18.10
2018-12-14T17:12:48.736Z,18.20
2018-12-14T17:15:16.278Z,19.90
2018-12-14T17:17:43.718Z,20.05
2018-12-14T17:20:11.154Z,18.30
2018-12-14T17:22:39.010Z,17.57
2018-12-14T17:25:06.977Z,17.90
2018-12-14T17:27:34.369Z,19.60
2018-12-14T17:30:01.938Z,19.07
2018-12-14T17:32:29.498Z,19.35
2018-12-14T17:34:59.036Z,19.20
2018-12-14T17:37:26.477Z,18.15
2018-12-14T17:39:56.035Z,17.95
2018-12-14T17:42:25.605Z,19.15
2018-12-14T17:44:53.142Z,16.95
2018-12-14T17:47:20.618Z,16.77
2018-12-14T17:49:48.079Z,19.23
2018-12-14T17:52:15.594Z,19.07
2018-12-14T17:54:43.095Z,17.80
2018-12-14T17:57:10.622Z,19.35
2018-12-14T17:59:38.198Z,18.35
2018-12-14T18:02:05.676Z,19.70
2018-12-14T18:04:33.127Z,18.55
2018-12-14T18:07:00.588Z,18.20
2018-12-14T18:09:27.994Z,17.92
2018-12-14T18:11:55.622Z,20.15
2018-12-14T18:14:23.197Z,20.37
2018-12-14T18:16:50.667Z,19.80
2018-12-14T18:19:18.130Z,18.10
2018-12-14T18:21:45.614Z,18.48
2018-12-14T18:24:13.099Z,20.80
2018-12-14T18:26:41.637Z,18.87
2018-12-14T18:29:09.084Z,19.80
2018-12-14T18:31:36.550Z,32.17
2018-12-14T18:34:04.179Z,23.52
2018-12-14T18:36:31.756Z,24.45
2018-12-14T18:38:59.195Z,20.68
2018-12-14T18:41:26.926Z,19.17
2018-12-14T18:43:54.425Z,20.55
2018-12-14T18:46:21.927Z,23.75
2018-12-14T18:48:49.407Z,25.85
2018-12-14T18:51:16.922Z,24.37
2018-12-14T18:53:51.196Z,22.30
2018-12-14T18:56:18.804Z,20.48
2018-12-14T18:58:46.324Z,21.10
2018-12-14T19:01:13.777Z,20.52
2018-12-14T19:03:41.238Z,19.70
2018-12-14T19:06:08.747Z,21.75
2018-12-14T19:08:36.293Z,21.25
2018-12-14T19:11:03.761Z,20.17
2018-12-14T19:13:31.218Z,22.13
2018-12-14T19:15:59.827Z,20.27
2018-12-14T19:18:27.514Z,21.15
2018-12-14T19:20:55.041Z,20.43
2018-12-14T19:23:22.629Z,19.82
2018-12-14T19:25:50.230Z,19.52
2018-12-14T19:28:17.729Z,19.57
2018-12-14T19:30:45.220Z,18.40
2018-12-14T19:33:12.865Z,19.73
2018-12-14T19:35:40.431Z,19.77
2018-12-14T19:38:07.919Z,20.45
2018-12-14T19:40:35.621Z,20.52
2018-12-14T19:43:03.061Z,19.57
2018-12-14T19:45:30.558Z,20.57
2018-12-14T19:47:58.028Z,19.90
2018-12-14T19:50:25.515Z,20.23
2018-12-14T19:52:53.004Z,19.10
2018-12-14T19:55:20.490Z,19.32
2018-12-14T19:57:47.999Z,20.00
2018-12-14T20:00:15.648Z,19.70
2018-12-14T20:02:43.370Z,20.27
2018-12-14T20:05:10.870Z,19.57
2018-12-14T20:07:38.432Z,19.85
2018-12-14T20:10:06.964Z,17.80
2018-12-14T20:12:34.727Z,19.57
2018-12-14T20:15:02.234Z,19.15
2018-12-14T20:17:30.117Z,19.10
2018-12-14T20:19:57.637Z,19.37
2018-12-14T20:22:25.079Z,18.48
2018-12-14T20:24:52.519Z,19.60
2018-12-14T20:27:20.086Z,18.02
2018-12-14T20:29:48.387Z,18.90
2018-12-14T20:32:15.865Z,20.90
2018-12-14T20:34:43.385Z,18.05
2018-12-14T20:37:10.804Z,18.60
2018-12-14T20:39:39.392Z,17.60
2018-12-14T20:42:06.825Z,18.70
2018-12-14T20:44:34.375Z,19.52
2018-12-14T20:47:01.869Z,19.25
2018-12-14T20:49:29.736Z,20.02
2018-12-14T20:51:57.326Z,23.85
2018-12-14T20:54:24.890Z,21.48
2018-12-14T20:56:52.377Z,20.48
2018-12-14T20:59:19.865Z,20.15
2018-12-14T21:01:47.327Z,20.68
2018-12-14T21:04:14.792Z,21.23
2018-12-14T21:06:42.221Z,19.73
2018-12-14T21:09:09.691Z,20.95
2018-12-14T21:11:37.309Z,19.65
2018-12-14T21:14:04.939Z,19.87
2018-12-14T21:16:38.951Z,21.87
2018-12-14T21:19:06.469Z,21.10
2018-12-14T21:21:34.082Z,19.32
2018-12-14T21:24:01.601Z,20.43
2018-12-14T21:26:29.252Z,21.25
2018-12-14T21:28:56.914Z,21.40
2018-12-14T21:31:24.407Z,20.60
2018-12-14T21:33:51.922Z,20.25
2018-12-14T21:36:19.383Z,18.80
2018-12-14T21:38:46.835Z,18.17
2018-12-14T21:41:14.315Z,19.40
2018-12-14T21:43:42.145Z,19.75
2018-12-14T21:46:09.811Z,18.10
2018-12-14T21:48:37.319Z,20.27
2018-12-14T21:51:04.924Z,20.95
2018-12-14T21:53:32.551Z,19.62
2018-12-14T21:56:00.067Z,20.30
2018-12-14T21:58:34.456Z,20.02
2018-12-14T22:01:02.005Z,20.08
2018-12-14T22:03:29.768Z,21.87
2018-12-14T22:05:57.399Z,20.12
2018-12-14T22:08:24.942Z,19.95
2018-12-14T22:10:52.478Z,20.92
2018-12-14T22:13:20.030Z,20.77
2018-12-14T22:15:47.473Z,19.90
2018-12-14T22:18:15.319Z,19.05
2018-12-14T22:20:42.785Z,19.75
2018-12-14T22:23:10.264Z,19.73
2018-12-14T22:25:37.749Z,20.82
2018-12-14T22:28:05.210Z,19.62
2018-12-14T22:30:32.808Z,18.87
2018-12-14T22:33:00.303Z,20.80
2018-12-14T22:35:27.793Z,22.02
2018-12-14T22:37:55.955Z,18.50
2018-12-14T22:40:23.466Z,17.60
2018-12-14T22:42:50.968Z,18.57
2018-12-14T22:45:18.409Z,18.92
2018-12-14T22:47:45.861Z,19.55
2018-12-14T22:50:13.392Z,19.82
2018-12-14T22:52:40.886Z,18.00
2018-12-14T22:55:08.330Z,18.42
2018-12-14T22:57:36.095Z,18.17
2018-12-14T23:00:06.100Z,18.82
2018-12-14T23:02:35.522Z,19.12
2018-12-14T23:05:03.311Z,19.55
2018-12-14T23:07:30.951Z,19.45
2018-12-14T23:09:58.909Z,19.70
2018-12-14T23:12:27.539Z,20.05
2018-12-14T23:14:54.976Z,18.85
2018-12-14T23:17:22.379Z,20.92
2018-12-14T23:19:50.951Z,20.15
2018-12-14T23:22:18.514Z,18.32
2018-12-14T23:24:45.968Z,18.32
2018-12-14T23:27:13.593Z,18.85
2018-12-14T23:29:41.009Z,19.00
2018-12-14T23:32:08.518Z,19.85
2018-12-14T23:34:36.080Z,20.02
2018-12-14T23:37:03.694Z,19.05
2018-12-14T23:39:31.351Z,18.15
2018-12-14T23:41:59.218Z,17.90
2018-12-14T23:44:26.702Z,18.30
2018-12-14T23:46:58.797Z,17.17
2018-12-14T23:49:23.703Z,17.65
2018-12-14T23:51:51.195Z,20.15
2018-12-14T23:54:18.673Z,20.15
2018-12-14T23:56:46.106Z,18.60
2018-12-14T23:59:13.910Z,17.92
